Weather reports worldwide

Advertisment
La Seo D'Urgell, Spain (8115): temperature & dewpoint: 13.03.2019 10:00:00 - 19.03.2019 10:00:00 (CET)La Seo D'Urgell, Spain (8115): wind speed & gusts: 13.03.2019 10:00:00 - 19.03.2019 10:00:00 (CET)La Seo D'Urgell, Spain (8115): wind direction: 13.03.2019 10:00:00 - 19.03.2019 10:00:00 (CET)La Seo D'Urgell, Spain (8115): precipitation: 13.03.2019 10:00:00 - 19.03.2019 10:00:00 (CET)
Date & Time tt [°C] td [°C] ff [km/h] ff [kn] fx [km/h] fx [kn] dd rr [mm]
19.03.2019 10:00:00 - - - - - - - -
19.03.2019 09:00:00 5,1 -0,5 1 1 6 3 SSW 0,0
19.03.2019 08:00:00 2,0 -2,7 3 2 6 4 N 0,0
19.03.2019 07:00:00 3,0 -3,1 0 0 7 4 ENE -
19.03.2019 06:00:00 3,5 -3,3 2 1 6 3 N 0,0
19.03.2019 05:00:00 3,7 -3,1 2 1 6 3 N 0,0
19.03.2019 04:00:00 4,4 -3,6 1 1 4 2 SE 0,0
19.03.2019 03:00:00 4,9 -4,3 1 0 6 3 ESE 0,0
19.03.2019 02:00:00 5,4 -4,7 0 0 9 5 N 0,0
19.03.2019 01:00:00 4,7 -5,1 1 1 6 4 NNE -
19.03.2019 00:00:00 6,2 -6,0 1 1 10 6 S 0,0
18.03.2019 23:00:00 7,5 -6,6 4 2 13 7 WSW 0,0
18.03.2019 22:00:00 8,4 -6,9 4 2 34 18 NNW 0,0
18.03.2019 21:00:00 8,7 -7,0 10 5 32 18 NNW 0,0
18.03.2019 20:00:00 9,2 -7,0 11 6 35 19 NNW 0,0
18.03.2019 19:00:00 10,0 -8,1 9 5 25 13 NNW -
18.03.2019 18:00:00 11,9 -7,4 8 5 24 13 NNW 0,0
18.03.2019 17:00:00 12,4 -7,5 8 5 21 11 N 0,0
18.03.2019 16:00:00 13,9 -5,7 9 5 21 12 NNW 0,0
18.03.2019 15:00:00 14,0 -6,2 9 5 23 12 NW 0,0
18.03.2019 14:00:00 14,2 -6,0 6 4 23 13 NNW 0,0
18.03.2019 13:00:00 14,1 -6,1 6 4 22 12 NNW -
18.03.2019 12:00:00 13,1 -6,4 8 5 22 12 NNE 0,0
18.03.2019 11:00:00 12,1 -5,3 6 3 21 12 NE 0,0
18.03.2019 10:00:00 10,9 -3,5 8 4 17 9 E 0,0
18.03.2019 09:00:00 7,1 -2,9 1 1 7 4 E 0,0
18.03.2019 08:00:00 1,7 -4,6 1 0 4 2 WNW 0,0
18.03.2019 07:00:00 1,4 -5,3 1 1 6 3 N -
18.03.2019 06:00:00 2,6 -5,7 1 1 5 3 NNE 0,0
18.03.2019 05:00:00 3,7 -6,2 1 1 7 4 SSW 0,0
18.03.2019 04:00:00 3,3 -6,3 2 1 6 4 N 0,0
18.03.2019 03:00:00 4,6 -7,5 3 2 19 11 NNE 0,0
18.03.2019 02:00:00 6,8 -6,8 4 2 21 11 ENE 0,0
18.03.2019 01:00:00 8,2 -6,7 9 5 29 16 N -
18.03.2019 00:00:00 9,1 -4,8 0 0 22 12 SE 0,0
17.03.2019 23:00:00 10,4 -3,3 3 2 20 11 N 0,0
17.03.2019 22:00:00 11,2 -2,5 2 1 17 9 NNE 0,0
17.03.2019 21:00:00 12,0 -1,8 6 4 24 13 WNW 0,0
17.03.2019 20:00:00 13,0 -1,3 7 4 26 14 WNW 0,0
17.03.2019 19:00:00 14,0 -0,8 11 6 37 20 NNW -
17.03.2019 18:00:00 16,3 0,0 10 5 31 17 NNW 0,0
17.03.2019 17:00:00 18,9 -0,5 9 5 27 15 W 0,0
17.03.2019 16:00:00 21,4 0,0 9 5 33 18 SW 0,0
17.03.2019 15:00:00 21,7 -2,2 11 6 32 17 WSW 0,0
17.03.2019 14:00:00 21,5 -1,1 11 6 34 18 W 0,0
17.03.2019 13:00:00 20,8 0,1 12 6 27 15 SSW -
17.03.2019 12:00:00 17,9 1,9 3 1 9 5 W 0,0
17.03.2019 11:00:00 14,8 1,4 3 1 10 5 SSW 0,0
17.03.2019 10:00:00 10,9 0,4 1 0 4 2 ESE 0,0
17.03.2019 09:00:00 6,2 1,5 0 0 6 4 E 0,0
17.03.2019 08:00:00 0,1 -1,3 0 0 4 2 NNE 0,0
17.03.2019 07:00:00 -0,2 -1,8 1 0 4 2 E -
17.03.2019 06:00:00 0,3 -1,4 0 0 4 2 ENE 0,0
17.03.2019 05:00:00 0,9 -1,2 0 0 5 3 N 0,0
17.03.2019 04:00:00 1,2 -1,0 0 0 3 2 NNW 0,0
17.03.2019 03:00:00 1,8 -0,9 0 0 5 3 SSE 0,0
17.03.2019 02:00:00 2,6 -0,7 1 0 5 3 E 0,0
17.03.2019 01:00:00 3,5 -0,5 0 0 5 3 E -
17.03.2019 00:00:00 4,2 -0,4 1 0 4 2 ESE 0,0
16.03.2019 23:00:00 5,3 -0,5 1 1 4 2 E 0,0
16.03.2019 22:00:00 6,6 -0,8 0 0 5 3 SW 0,0
16.03.2019 21:00:00 8,8 -0,7 1 0 5 3 N 0,0
16.03.2019 20:00:00 12,4 -0,8 0 0 8 4 S 0,0
16.03.2019 19:00:00 17,7 -1,5 3 2 9 5 W -
16.03.2019 18:00:00 22,1 -2,5 5 3 17 9 W 0,0
16.03.2019 17:00:00 23,3 -3,1 5 3 24 13 SW 0,0
16.03.2019 16:00:00 24,2 -0,8 7 4 21 12 SW 0,0
16.03.2019 15:00:00 24,2 0,5 1 1 14 8 NW 0,0
16.03.2019 14:00:00 22,3 -0,4 5 3 13 7 SW 0,0
16.03.2019 13:00:00 19,7 -2,0 2 1 9 5 SSW -
16.03.2019 12:00:00 16,2 -1,8 1 1 8 4 SSE 0,0
16.03.2019 11:00:00 12,6 -1,7 3 2 8 4 SSW 0,0
16.03.2019 10:00:00 8,0 0,0 4 2 7 4 SSW 0,0
16.03.2019 09:00:00 4,1 2,0 1 1 4 2 ESE 0,0
16.03.2019 08:00:00 -1,2 -1,9 2 1 5 3 NE 0,0
16.03.2019 07:00:00 -1,6 -2,3 1 1 4 2 NNE -
16.03.2019 06:00:00 -1,0 -1,7 0 0 4 2 ENE 0,0
16.03.2019 05:00:00 -0,3 -1,0 1 0 4 2 NE 0,0
16.03.2019 04:00:00 0,2 -0,5 0 0 3 2 WNW 0,0
16.03.2019 03:00:00 1,1 0,2 0 0 4 2 NE 0,0
16.03.2019 02:00:00 1,6 0,6 0 0 5 3 WNW 0,0
16.03.2019 01:00:00 2,4 1,4 0 0 4 2 SSE -
16.03.2019 00:00:00 3,8 2,5 0 0 5 3 NE 0,0
15.03.2019 23:00:00 5,4 2,8 1 0 3 2 NE 0,0
15.03.2019 22:00:00 7,0 3,1 0 0 6 3 ENE 0,0
15.03.2019 21:00:00 9,2 3,6 1 1 6 3 NE 0,0
15.03.2019 20:00:00 12,7 3,7 0 0 8 5 S 0,0
15.03.2019 19:00:00 16,4 4,1 6 4 19 10 WNW -
15.03.2019 18:00:00 18,7 3,7 6 4 26 14 WNW 0,0
15.03.2019 17:00:00 20,5 3,7 11 6 24 13 WSW 0,0
15.03.2019 16:00:00 22,4 4,5 11 6 24 13 WSW 0,0
15.03.2019 15:00:00 22,2 4,3 10 5 28 15 WSW 0,0
15.03.2019 14:00:00 22,6 4,6 4 2 19 11 WSW 0,0
15.03.2019 13:00:00 20,1 5,7 4 2 11 6 SSW -
15.03.2019 12:00:00 16,8 4,5 4 2 11 6 SW 0,0
15.03.2019 11:00:00 12,7 2,6 3 2 7 4 SSW 0,0
15.03.2019 10:00:00 9,3 1,2 2 1 9 5 S 0,0
15.03.2019 09:00:00 5,2 0,8 1 1 8 4 E 0,0
15.03.2019 08:00:00 0,0 -2,2 1 1 6 3 ENE 0,0
15.03.2019 07:00:00 -0,2 -2,7 0 0 4 2 S -
15.03.2019 06:00:00 0,0 -2,7 1 1 6 3 NNE 0,0
15.03.2019 05:00:00 0,6 -2,4 1 1 8 4 S 0,0
15.03.2019 04:00:00 1,2 -2,2 2 1 7 4 E 0,0
15.03.2019 03:00:00 1,1 -2,5 2 1 8 4 S 0,0
15.03.2019 02:00:00 1,4 -2,3 0 0 5 3 WNW 0,0
15.03.2019 01:00:00 2,0 -2,1 1 1 6 3 N -
15.03.2019 00:00:00 3,0 -1,3 0 0 5 3 E 0,0
14.03.2019 23:00:00 5,2 -4,3 0 0 7 4 WNW 0,0
14.03.2019 22:00:00 6,8 -5,2 1 1 7 4 N 0,0
14.03.2019 21:00:00 8,9 -6,8 1 1 8 4 ESE 0,0
14.03.2019 20:00:00 12,9 -7,1 2 1 22 12 N 0,0
14.03.2019 19:00:00 15,2 -6,3 9 5 24 13 W -
14.03.2019 18:00:00 17,3 -4,6 8 4 28 15 W 0,0
14.03.2019 17:00:00 17,6 -5,6 10 5 29 16 WSW 0,0
14.03.2019 16:00:00 18,1 -3,9 14 8 31 17 SW 0,0
14.03.2019 15:00:00 18,2 -4,4 12 6 28 15 SW 0,0
14.03.2019 14:00:00 17,7 -4,2 10 5 28 15 WSW 0,0
14.03.2019 13:00:00 16,6 -2,4 6 4 20 11 SW -
14.03.2019 12:00:00 13,8 -1,0 3 2 10 5 SE 0,0
14.03.2019 11:00:00 11,3 -0,8 3 2 9 5 WSW 0,0
14.03.2019 10:00:00 8,1 0,1 1 0 9 5 SSW 0,0
14.03.2019 09:00:00 2,4 -0,3 3 1 6 3 SSW 0,0
14.03.2019 08:00:00 -1,4 -3,3 1 1 5 3 S 0,0
14.03.2019 07:00:00 -1,6 -3,6 0 0 6 3 S -
14.03.2019 06:00:00 -1,4 -3,6 0 0 6 3 W 0,0
14.03.2019 05:00:00 -1,0 -3,5 0 0 5 3 NNE 0,0
14.03.2019 04:00:00 -0,3 -3,1 2 1 5 3 N 0,0
14.03.2019 03:00:00 0,0 -2,2 1 1 8 4 NE 0,0
14.03.2019 02:00:00 0,0 -2,4 0 0 9 5 N 0,0
14.03.2019 01:00:00 0,3 -2,6 0 0 4 2 N -
14.03.2019 00:00:00 1,2 -1,9 1 1 8 4 E 0,0
13.03.2019 23:00:00 2,5 -3,6 1 0 7 4 SSE 0,0
13.03.2019 22:00:00 4,2 -3,8 1 1 5 3 SE 0,0
13.03.2019 21:00:00 5,6 -4,5 1 1 9 5 NNE 0,0
13.03.2019 20:00:00 7,8 -4,9 1 1 22 12 NE 0,0
13.03.2019 19:00:00 9,4 -4,5 7 4 29 16 WSW -
13.03.2019 18:00:00 10,5 -4,6 10 5 36 19 W 0,0
13.03.2019 17:00:00 11,9 -4,6 9 5 33 18 WNW 0,0
13.03.2019 16:00:00 12,4 -5,1 10 6 31 17 W 0,0
13.03.2019 15:00:00 - - - - - - - -
13.03.2019 14:00:00 13,0 -4,6 13 7 39 21 W 0,0
13.03.2019 13:00:00 13,0 -5,0 13 7 33 18 W -
13.03.2019 12:00:00 13,0 -5,0 10 6 30 16 W 0,0
13.03.2019 11:00:00 13,2 -4,9 7 4 26 14 E 0,0
13.03.2019 10:00:00 8,5 2,5 1 1 9 5 SW 0,0

tt = temperature
td = dewpoint
ff = wind speed
fx = gusts
dd = wind direction
rr = precipitation

Next stations